Westerville, Ohio
Current Conditions -  °F | °C
As of 8:53 PM on Saturday 22 Nov 2014 (Local Time) from KOSU Reporting Station
Overcast Overcast  
Wind Chill: 45°   Ceiling: 6000
Heat Index: 49°   Visibility: 10mi
Dew Point: 35°   Wind: 9mph
Humidity: 59%   Direction: 180°S
Pressure: 30.07"   Gusts: NA
Location:  40.13°N, 82.93°W
Report Text: KOSU 230153Z 18008KT 10SM BKN060 OVC070 09/02 A3007 RMK AO2 SLP188 T00940017
Loading
Personal Weather Stations






























Interactive Weather Map New forecast layout! Learn more

10-Day Weather Forecast

Advertisements
Track Severe Weather on mobile